sensor_id;sensor_type;location;lat;lon;timestamp;P1;durP1;ratioP1;P2;durP2;ratioP2
43152;SDS011;28756;49.064;9.290;2023-05-10T00:00:24;0.63;;;0.60;;
43152;SDS011;28756;49.064;9.290;2023-05-10T00:02:50;0.82;;;0.63;;
43152;SDS011;28756;49.064;9.290;2023-05-10T00:05:16;0.73;;;0.68;;
43152;SDS011;28756;49.064;9.290;2023-05-10T00:07:42;0.82;;;0.60;;
43152;SDS011;28756;49.064;9.290;2023-05-10T00:10:09;1.40;;;0.70;;
43152;SDS011;28756;49.064;9.290;2023-05-10T00:12:36;0.82;;;0.70;;
43152;SDS011;28756;49.064;9.290;2023-05-10T00:15:02;1.10;;;0.55;;
43152;SDS011;28756;49.064;9.290;2023-05-10T00:17:28;0.50;;;0.47;;
43152;SDS011;28756;49.064;9.290;2023-05-10T00:19:54;0.70;;;0.43;;
43152;SDS011;28756;49.064;9.290;2023-05-10T00:22:20;0.50;;;0.50;;
43152;SDS011;28756;49.064;9.290;2023-05-10T00:24:46;0.40;;;0.40;;
43152;SDS011;28756;49.064;9.290;2023-05-10T00:27:11;0.85;;;0.40;;
43152;SDS011;28756;49.064;9.290;2023-05-10T00:29:37;0.30;;;0.30;;
43152;SDS011;28756;49.064;9.290;2023-05-10T00:32:03;0.88;;;0.40;;
43152;SDS011;28756;49.064;9.290;2023-05-10T00:34:29;0.60;;;0.30;;
43152;SDS011;28756;49.064;9.290;2023-05-10T00:36:55;0.60;;;0.40;;
43152;SDS011;28756;49.064;9.290;2023-05-10T00:39:21;1.02;;;0.40;;
43152;SDS011;28756;49.064;9.290;2023-05-10T00:41:47;1.42;;;0.40;;
43152;SDS011;28756;49.064;9.290;2023-05-10T00:44:12;0.57;;;0.40;;
43152;SDS011;28756;49.064;9.290;2023-05-10T00:46:39;0.35;;;0.35;;
43152;SDS011;28756;49.064;9.290;2023-05-10T00:49:06;0.40;;;0.35;;
43152;SDS011;28756;49.064;9.290;2023-05-10T00:51:32;0.40;;;0.40;;
43152;SDS011;28756;49.064;9.290;2023-05-10T00:53:58;0.55;;;0.40;;
43152;SDS011;28756;49.064;9.290;2023-05-10T00:56:24;1.85;;;0.40;;
43152;SDS011;28756;49.064;9.290;2023-05-10T00:58:51;0.43;;;0.30;;
43152;SDS011;28756;49.064;9.290;2023-05-10T01:01:17;2.55;;;0.40;;
43152;SDS011;28756;49.064;9.290;2023-05-10T01:03:44;0.75;;;0.38;;
43152;SDS011;28756;49.064;9.290;2023-05-10T01:06:11;0.80;;;0.40;;
43152;SDS011;28756;49.064;9.290;2023-05-10T01:08:38;0.30;;;0.30;;
43152;SDS011;28756;49.064;9.290;2023-05-10T01:11:04;0.30;;;0.30;;
43152;SDS011;28756;49.064;9.290;2023-05-10T01:13:31;0.40;;;0.40;;
43152;SDS011;28756;49.064;9.290;2023-05-10T01:16:03;0.30;;;0.30;;
43152;SDS011;28756;49.064;9.290;2023-05-10T01:18:30;0.30;;;0.30;;
43152;SDS011;28756;49.064;9.290;2023-05-10T01:24:07;0.40;;;0.40;;
43152;SDS011;28756;49.064;9.290;2023-05-10T01:30:11;0.40;;;0.40;;
43152;SDS011;28756;49.064;9.290;2023-05-10T01:33:11;0.82;;;0.60;;
43152;SDS011;28756;49.064;9.290;2023-05-10T01:35:51;4.68;;;0.50;;
43152;SDS011;28756;49.064;9.290;2023-05-10T01:41:08;0.55;;;0.55;;
43152;SDS011;28756;49.064;9.290;2023-05-10T01:47:25;0.43;;;0.40;;
43152;SDS011;28756;49.064;9.290;2023-05-10T01:50:03;0.70;;;0.60;;
43152;SDS011;28756;49.064;9.290;2023-05-10T01:52:38;1.40;;;0.70;;
43152;SDS011;28756;49.064;9.290;2023-05-10T01:55:11;1.20;;;0.50;;
43152;SDS011;28756;49.064;9.290;2023-05-10T01:57:42;1.38;;;0.60;;
43152;SDS011;28756;49.064;9.290;2023-05-10T02:00:11;1.02;;;0.60;;
43152;SDS011;28756;49.064;9.290;2023-05-10T02:02:39;1.50;;;0.50;;
43152;SDS011;28756;49.064;9.290;2023-05-10T02:05:09;0.60;;;0.57;;
43152;SDS011;28756;49.064;9.290;2023-05-10T02:07:39;1.85;;;0.60;;
43152;SDS011;28756;49.064;9.290;2023-05-10T02:10:07;3.83;;;0.47;;
43152;SDS011;28756;49.064;9.290;2023-05-10T02:12:35;0.50;;;0.50;;
43152;SDS011;28756;49.064;9.290;2023-05-10T02:15:10;0.70;;;0.60;;
43152;SDS011;28756;49.064;9.290;2023-05-10T02:17:40;0.50;;;0.40;;
43152;SDS011;28756;49.064;9.290;2023-05-10T02:20:08;0.55;;;0.40;;
43152;SDS011;28756;49.064;9.290;2023-05-10T02:22:36;1.23;;;0.50;;
43152;SDS011;28756;49.064;9.290;2023-05-10T02:25:03;0.77;;;0.47;;
43152;SDS011;28756;49.064;9.290;2023-05-10T02:27:31;0.77;;;0.50;;
43152;SDS011;28756;49.064;9.290;2023-05-10T02:29:58;0.50;;;0.50;;
43152;SDS011;28756;49.064;9.290;2023-05-10T02:32:25;1.00;;;0.70;;
43152;SDS011;28756;49.064;9.290;2023-05-10T02:34:52;0.93;;;0.60;;
43152;SDS011;28756;49.064;9.290;2023-05-10T02:37:19;1.33;;;0.40;;
43152;SDS011;28756;49.064;9.290;2023-05-10T02:39:47;0.40;;;0.40;;
43152;SDS011;28756;49.064;9.290;2023-05-10T02:42:16;0.40;;;0.40;;
43152;SDS011;28756;49.064;9.290;2023-05-10T02:44:48;0.68;;;0.50;;
43152;SDS011;28756;49.064;9.290;2023-05-10T02:47:17;0.40;;;0.40;;
43152;SDS011;28756;49.064;9.290;2023-05-10T02:49:44;0.50;;;0.50;;
43152;SDS011;28756;49.064;9.290;2023-05-10T02:52:11;0.55;;;0.50;;
43152;SDS011;28756;49.064;9.290;2023-05-10T02:54:43;0.40;;;0.40;;
43152;SDS011;28756;49.064;9.290;2023-05-10T02:57:15;1.65;;;0.57;;
43152;SDS011;28756;49.064;9.290;2023-05-10T02:59:44;0.40;;;0.40;;
43152;SDS011;28756;49.064;9.290;2023-05-10T03:02:12;1.60;;;0.60;;
43152;SDS011;28756;49.064;9.290;2023-05-10T03:04:38;0.80;;;0.70;;
43152;SDS011;28756;49.064;9.290;2023-05-10T03:07:04;0.45;;;0.45;;
43152;SDS011;28756;49.064;9.290;2023-05-10T03:09:30;4.57;;;0.75;;
43152;SDS011;28756;49.064;9.290;2023-05-10T03:12:01;0.50;;;0.50;;
43152;SDS011;28756;49.064;9.290;2023-05-10T03:14:49;0.90;;;0.70;;
43152;SDS011;28756;49.064;9.290;2023-05-10T03:20:18;2.05;;;0.70;;
43152;SDS011;28756;49.064;9.290;2023-05-10T03:23:13;0.75;;;0.70;;
43152;SDS011;28756;49.064;9.290;2023-05-10T03:26:08;1.02;;;0.68;;
43152;SDS011;28756;49.064;9.290;2023-05-10T03:28:34;0.60;;;0.60;;
43152;SDS011;28756;49.064;9.290;2023-05-10T03:31:02;1.65;;;0.70;;
43152;SDS011;28756;49.064;9.290;2023-05-10T03:33:30;0.50;;;0.50;;
43152;SDS011;28756;49.064;9.290;2023-05-10T03:35:56;1.83;;;0.80;;
43152;SDS011;28756;49.064;9.290;2023-05-10T03:38:22;0.75;;;0.70;;
43152;SDS011;28756;49.064;9.290;2023-05-10T03:40:48;0.80;;;0.60;;
43152;SDS011;28756;49.064;9.290;2023-05-10T03:43:14;0.70;;;0.70;;
43152;SDS011;28756;49.064;9.290;2023-05-10T03:45:40;0.80;;;0.68;;
43152;SDS011;28756;49.064;9.290;2023-05-10T03:48:06;4.50;;;1.42;;
43152;SDS011;28756;49.064;9.290;2023-05-10T03:50:31;2.90;;;0.98;;
43152;SDS011;28756;49.064;9.290;2023-05-10T03:52:57;1.20;;;1.10;;
43152;SDS011;28756;49.064;9.290;2023-05-10T03:55:23;1.10;;;1.00;;
43152;SDS011;28756;49.064;9.290;2023-05-10T03:57:49;1.48;;;0.88;;
43152;SDS011;28756;49.064;9.290;2023-05-10T04:00:15;2.30;;;1.17;;
43152;SDS011;28756;49.064;9.290;2023-05-10T04:02:41;1.08;;;1.00;;
43152;SDS011;28756;49.064;9.290;2023-05-10T04:05:07;3.13;;;1.17;;
43152;SDS011;28756;49.064;9.290;2023-05-10T04:07:33;4.40;;;1.25;;
43152;SDS011;28756;49.064;9.290;2023-05-10T04:09:59;0.82;;;0.82;;
43152;SDS011;28756;49.064;9.290;2023-05-10T04:12:25;3.35;;;1.50;;
43152;SDS011;28756;49.064;9.290;2023-05-10T04:14:50;1.25;;;1.15;;
43152;SDS011;28756;49.064;9.290;2023-05-10T04:17:16;1.55;;;1.20;;
43152;SDS011;28756;49.064;9.290;2023-05-10T04:19:42;1.10;;;1.00;;
43152;SDS011;28756;49.064;9.290;2023-05-10T04:22:08;3.53;;;1.10;;
43152;SDS011;28756;49.064;9.290;2023-05-10T04:24:34;1.10;;;1.00;;
43152;SDS011;28756;49.064;9.290;2023-05-10T04:26:59;1.20;;;0.98;;
43152;SDS011;28756;49.064;9.290;2023-05-10T04:29:25;1.00;;;0.90;;
43152;SDS011;28756;49.064;9.290;2023-05-10T04:31:52;1.02;;;0.80;;
43152;SDS011;28756;49.064;9.290;2023-05-10T04:34:19;1.20;;;1.10;;
43152;SDS011;28756;49.064;9.290;2023-05-10T04:36:46;2.17;;;0.95;;
43152;SDS011;28756;49.064;9.290;2023-05-10T04:39:11;1.23;;;1.00;;
43152;SDS011;28756;49.064;9.290;2023-05-10T04:41:38;1.13;;;1.02;;
43152;SDS011;28756;49.064;9.290;2023-05-10T04:44:04;1.17;;;1.08;;
43152;SDS011;28756;49.064;9.290;2023-05-10T04:46:31;1.48;;;1.15;;
43152;SDS011;28756;49.064;9.290;2023-05-10T04:48:57;2.15;;;1.10;;
43152;SDS011;28756;49.064;9.290;2023-05-10T04:51:22;1.15;;;1.05;;
43152;SDS011;28756;49.064;9.290;2023-05-10T04:53:48;2.03;;;1.20;;
43152;SDS011;28756;49.064;9.290;2023-05-10T04:56:14;1.55;;;1.45;;
43152;SDS011;28756;49.064;9.290;2023-05-10T04:58:41;2.75;;;1.70;;
43152;SDS011;28756;49.064;9.290;2023-05-10T05:01:07;2.08;;;1.38;;
43152;SDS011;28756;49.064;9.290;2023-05-10T05:03:34;2.13;;;1.90;;
43152;SDS011;28756;49.064;9.290;2023-05-10T05:06:00;1.52;;;1.42;;
43152;SDS011;28756;49.064;9.290;2023-05-10T05:08:26;1.38;;;1.27;;
43152;SDS011;28756;49.064;9.290;2023-05-10T05:10:52;1.35;;;1.25;;
43152;SDS011;28756;49.064;9.290;2023-05-10T05:13:17;2.05;;;1.23;;
43152;SDS011;28756;49.064;9.290;2023-05-10T05:15:43;1.30;;;1.20;;
43152;SDS011;28756;49.064;9.290;2023-05-10T05:18:09;1.60;;;1.27;;
43152;SDS011;28756;49.064;9.290;2023-05-10T05:20:35;1.55;;;1.35;;
43152;SDS011;28756;49.064;9.290;2023-05-10T05:23:01;2.63;;;1.45;;
43152;SDS011;28756;49.064;9.290;2023-05-10T05:25:27;2.50;;;1.60;;
43152;SDS011;28756;49.064;9.290;2023-05-10T05:27:53;2.10;;;1.50;;
43152;SDS011;28756;49.064;9.290;2023-05-10T05:30:18;1.50;;;1.40;;
43152;SDS011;28756;49.064;9.290;2023-05-10T05:32:44;3.92;;;1.50;;
43152;SDS011;28756;49.064;9.290;2023-05-10T05:35:12;1.80;;;1.20;;
43152;SDS011;28756;49.064;9.290;2023-05-10T05:37:38;2.55;;;1.38;;
43152;SDS011;28756;49.064;9.290;2023-05-10T05:40:04;1.70;;;1.38;;
43152;SDS011;28756;49.064;9.290;2023-05-10T05:42:31;2.42;;;1.40;;
43152;SDS011;28756;49.064;9.290;2023-05-10T05:44:57;1.60;;;1.35;;
43152;SDS011;28756;49.064;9.290;2023-05-10T05:47:23;1.88;;;1.50;;
43152;SDS011;28756;49.064;9.290;2023-05-10T05:49:49;1.95;;;1.30;;
43152;SDS011;28756;49.064;9.290;2023-05-10T05:52:14;2.17;;;1.45;;
43152;SDS011;28756;49.064;9.290;2023-05-10T05:54:40;1.40;;;1.23;;
43152;SDS011;28756;49.064;9.290;2023-05-10T05:57:06;1.45;;;1.25;;
43152;SDS011;28756;49.064;9.290;2023-05-10T05:59:32;1.90;;;1.40;;
43152;SDS011;28756;49.064;9.290;2023-05-10T06:01:58;1.60;;;1.40;;
43152;SDS011;28756;49.064;9.290;2023-05-10T06:04:23;1.88;;;1.30;;
43152;SDS011;28756;49.064;9.290;2023-05-10T06:06:50;3.17;;;1.50;;
43152;SDS011;28756;49.064;9.290;2023-05-10T06:09:15;1.42;;;1.33;;
43152;SDS011;28756;49.064;9.290;2023-05-10T06:11:41;1.52;;;1.33;;
43152;SDS011;28756;49.064;9.290;2023-05-10T06:14:07;2.60;;;1.10;;
43152;SDS011;28756;49.064;9.290;2023-05-10T06:16:33;1.95;;;1.63;;
43152;SDS011;28756;49.064;9.290;2023-05-10T06:18:59;3.03;;;1.52;;
43152;SDS011;28756;49.064;9.290;2023-05-10T06:21:25;3.90;;;1.70;;
43152;SDS011;28756;49.064;9.290;2023-05-10T06:23:51;1.95;;;1.67;;
43152;SDS011;28756;49.064;9.290;2023-05-10T06:26:17;2.58;;;1.50;;
43152;SDS011;28756;49.064;9.290;2023-05-10T06:28:43;1.77;;;1.55;;
43152;SDS011;28756;49.064;9.290;2023-05-10T06:31:09;1.63;;;1.52;;
43152;SDS011;28756;49.064;9.290;2023-05-10T06:33:36;3.03;;;1.52;;
43152;SDS011;28756;49.064;9.290;2023-05-10T06:36:02;2.38;;;1.50;;
43152;SDS011;28756;49.064;9.290;2023-05-10T06:38:28;3.00;;;1.70;;
43152;SDS011;28756;49.064;9.290;2023-05-10T06:40:53;3.50;;;1.40;;
43152;SDS011;28756;49.064;9.290;2023-05-10T06:43:19;3.33;;;1.73;;
43152;SDS011;28756;49.064;9.290;2023-05-10T06:45:45;1.52;;;1.35;;
43152;SDS011;28756;49.064;9.290;2023-05-10T06:48:12;2.72;;;1.35;;
43152;SDS011;28756;49.064;9.290;2023-05-10T06:50:38;1.67;;;1.25;;
43152;SDS011;28756;49.064;9.290;2023-05-10T06:53:04;1.80;;;1.38;;
43152;SDS011;28756;49.064;9.290;2023-05-10T06:55:29;1.50;;;1.40;;
43152;SDS011;28756;49.064;9.290;2023-05-10T06:57:55;1.58;;;1.45;;
43152;SDS011;28756;49.064;9.290;2023-05-10T07:00:21;1.98;;;1.38;;
43152;SDS011;28756;49.064;9.290;2023-05-10T07:02:50;3.97;;;1.52;;
43152;SDS011;28756;49.064;9.290;2023-05-10T07:05:16;1.33;;;1.20;;
43152;SDS011;28756;49.064;9.290;2023-05-10T07:07:42;1.48;;;1.30;;
43152;SDS011;28756;49.064;9.290;2023-05-10T07:10:07;1.65;;;1.30;;
43152;SDS011;28756;49.064;9.290;2023-05-10T07:12:34;1.20;;;1.00;;
43152;SDS011;28756;49.064;9.290;2023-05-10T07:15:00;1.55;;;1.00;;
43152;SDS011;28756;49.064;9.290;2023-05-10T07:17:26;2.42;;;0.95;;
43152;SDS011;28756;49.064;9.290;2023-05-10T07:19:51;1.10;;;0.90;;
43152;SDS011;28756;49.064;9.290;2023-05-10T07:22:17;1.20;;;0.85;;
43152;SDS011;28756;49.064;9.290;2023-05-10T07:24:43;1.00;;;0.90;;
43152;SDS011;28756;49.064;9.290;2023-05-10T07:27:09;1.48;;;1.00;;
43152;SDS011;28756;49.064;9.290;2023-05-10T07:29:35;1.70;;;0.90;;
43152;SDS011;28756;49.064;9.290;2023-05-10T07:32:02;0.98;;;0.88;;
43152;SDS011;28756;49.064;9.290;2023-05-10T07:34:28;1.23;;;1.13;;
43152;SDS011;28756;49.064;9.290;2023-05-10T07:36:55;1.00;;;0.90;;
43152;SDS011;28756;49.064;9.290;2023-05-10T07:39:23;1.27;;;0.70;;
43152;SDS011;28756;49.064;9.290;2023-05-10T07:41:48;1.10;;;0.90;;
43152;SDS011;28756;49.064;9.290;2023-05-10T07:44:14;0.95;;;0.75;;
43152;SDS011;28756;49.064;9.290;2023-05-10T07:46:43;1.08;;;0.90;;
43152;SDS011;28756;49.064;9.290;2023-05-10T07:49:08;0.98;;;0.77;;
43152;SDS011;28756;49.064;9.290;2023-05-10T07:51:34;2.05;;;0.85;;
43152;SDS011;28756;49.064;9.290;2023-05-10T07:54:00;1.27;;;0.90;;
43152;SDS011;28756;49.064;9.290;2023-05-10T07:56:28;2.17;;;1.50;;
43152;SDS011;28756;49.064;9.290;2023-05-10T07:58:57;4.50;;;1.30;;
43152;SDS011;28756;49.064;9.290;2023-05-10T08:01:29;1.27;;;0.80;;
43152;SDS011;28756;49.064;9.290;2023-05-10T08:03:59;0.80;;;0.77;;
43152;SDS011;28756;49.064;9.290;2023-05-10T08:06:26;0.80;;;0.63;;
43152;SDS011;28756;49.064;9.290;2023-05-10T08:08:54;2.25;;;0.70;;
43152;SDS011;28756;49.064;9.290;2023-05-10T08:11:21;3.95;;;0.70;;
43152;SDS011;28756;49.064;9.290;2023-05-10T08:13:48;2.70;;;2.50;;
43152;SDS011;28756;49.064;9.290;2023-05-10T08:16:15;1.42;;;1.23;;
43152;SDS011;28756;49.064;9.290;2023-05-10T08:18:42;1.00;;;0.90;;
43152;SDS011;28756;49.064;9.290;2023-05-10T08:21:12;2.22;;;1.05;;
43152;SDS011;28756;49.064;9.290;2023-05-10T08:23:39;0.95;;;0.70;;
43152;SDS011;28756;49.064;9.290;2023-05-10T08:26:05;2.35;;;1.35;;
43152;SDS011;28756;49.064;9.290;2023-05-10T08:28:31;0.82;;;0.73;;
43152;SDS011;28756;49.064;9.290;2023-05-10T08:30:57;1.10;;;0.82;;
43152;SDS011;28756;49.064;9.290;2023-05-10T08:33:23;1.40;;;1.17;;
43152;SDS011;28756;49.064;9.290;2023-05-10T08:35:49;1.65;;;1.00;;
43152;SDS011;28756;49.064;9.290;2023-05-10T08:38:15;0.85;;;0.80;;
43152;SDS011;28756;49.064;9.290;2023-05-10T08:40:41;1.10;;;0.88;;
43152;SDS011;28756;49.064;9.290;2023-05-10T08:43:10;1.73;;;0.70;;
43152;SDS011;28756;49.064;9.290;2023-05-10T08:45:38;0.65;;;0.65;;
43152;SDS011;28756;49.064;9.290;2023-05-10T08:48:07;1.10;;;0.90;;
43152;SDS011;28756;49.064;9.290;2023-05-10T08:50:38;1.60;;;1.10;;
43152;SDS011;28756;49.064;9.290;2023-05-10T08:53:10;1.20;;;1.10;;
43152;SDS011;28756;49.064;9.290;2023-05-10T08:55:38;0.95;;;0.77;;
43152;SDS011;28756;49.064;9.290;2023-05-10T08:58:07;1.45;;;0.70;;
43152;SDS011;28756;49.064;9.290;2023-05-10T09:00:34;0.90;;;0.63;;
43152;SDS011;28756;49.064;9.290;2023-05-10T09:03:02;0.43;;;0.43;;
43152;SDS011;28756;49.064;9.290;2023-05-10T09:05:29;0.68;;;0.50;;
43152;SDS011;28756;49.064;9.290;2023-05-10T09:07:55;0.73;;;0.50;;
43152;SDS011;28756;49.064;9.290;2023-05-10T09:10:21;0.73;;;0.55;;
43152;SDS011;28756;49.064;9.290;2023-05-10T09:12:52;0.88;;;0.60;;
43152;SDS011;28756;49.064;9.290;2023-05-10T09:15:20;1.52;;;0.47;;
43152;SDS011;28756;49.064;9.290;2023-05-10T09:17:46;1.50;;;0.55;;
43152;SDS011;28756;49.064;9.290;2023-05-10T09:20:14;1.23;;;0.60;;
43152;SDS011;28756;49.064;9.290;2023-05-10T09:22:40;0.60;;;0.50;;
43152;SDS011;28756;49.064;9.290;2023-05-10T09:25:06;1.02;;;0.50;;
43152;SDS011;28756;49.064;9.290;2023-05-10T09:27:38;0.80;;;0.50;;
43152;SDS011;28756;49.064;9.290;2023-05-10T09:30:06;0.50;;;0.50;;
43152;SDS011;28756;49.064;9.290;2023-05-10T09:32:46;0.60;;;0.60;;
43152;SDS011;28756;49.064;9.290;2023-05-10T09:35:17;0.57;;;0.50;;
43152;SDS011;28756;49.064;9.290;2023-05-10T09:37:46;0.95;;;0.60;;
43152;SDS011;28756;49.064;9.290;2023-05-10T09:40:19;1.52;;;0.80;;
43152;SDS011;28756;49.064;9.290;2023-05-10T09:43:06;0.60;;;0.60;;
43152;SDS011;28756;49.064;9.290;2023-05-10T09:45:34;0.80;;;0.60;;
43152;SDS011;28756;49.064;9.290;2023-05-10T09:48:01;0.93;;;0.63;;
43152;SDS011;28756;49.064;9.290;2023-05-10T09:50:28;0.75;;;0.50;;
43152;SDS011;28756;49.064;9.290;2023-05-10T09:52:56;1.95;;;0.60;;
43152;SDS011;28756;49.064;9.290;2023-05-10T09:55:41;0.80;;;0.57;;
43152;SDS011;28756;49.064;9.290;2023-05-10T09:58:14;1.08;;;0.40;;
43152;SDS011;28756;49.064;9.290;2023-05-10T10:00:41;0.70;;;0.55;;
43152;SDS011;28756;49.064;9.290;2023-05-10T10:03:15;0.60;;;0.50;;
43152;SDS011;28756;49.064;9.290;2023-05-10T10:05:44;0.82;;;0.50;;
43152;SDS011;28756;49.064;9.290;2023-05-10T10:08:11;0.30;;;0.30;;
43152;SDS011;28756;49.064;9.290;2023-05-10T10:10:38;1.23;;;0.65;;
43152;SDS011;28756;49.064;9.290;2023-05-10T10:13:05;1.23;;;0.60;;
43152;SDS011;28756;49.064;9.290;2023-05-10T10:15:32;0.45;;;0.43;;
43152;SDS011;28756;49.064;9.290;2023-05-10T10:17:59;0.88;;;0.60;;
43152;SDS011;28756;49.064;9.290;2023-05-10T10:20:25;1.05;;;0.50;;
43152;SDS011;28756;49.064;9.290;2023-05-10T10:22:52;0.73;;;0.68;;
43152;SDS011;28756;49.064;9.290;2023-05-10T10:25:18;2.45;;;0.60;;
43152;SDS011;28756;49.064;9.290;2023-05-10T10:36:05;1.45;;;0.40;;
43152;SDS011;28756;49.064;9.290;2023-05-10T10:38:36;1.85;;;0.60;;
43152;SDS011;28756;49.064;9.290;2023-05-10T10:57:21;0.60;;;0.60;;
43152;SDS011;28756;49.064;9.290;2023-05-10T10:59:47;1.70;;;0.70;;
43152;SDS011;28756;49.064;9.290;2023-05-10T11:07:54;0.63;;;0.63;;
43152;SDS011;28756;49.064;9.290;2023-05-10T11:10:22;0.77;;;0.70;;
43152;SDS011;28756;49.064;9.290;2023-05-10T11:12:53;0.93;;;0.70;;
43152;SDS011;28756;49.064;9.290;2023-05-10T11:15:34;1.38;;;0.60;;
43152;SDS011;28756;49.064;9.290;2023-05-10T11:18:18;1.92;;;1.00;;
43152;SDS011;28756;49.064;9.290;2023-05-10T11:20:56;0.60;;;0.57;;
43152;SDS011;28756;49.064;9.290;2023-05-10T11:26:07;1.58;;;0.82;;
43152;SDS011;28756;49.064;9.290;2023-05-10T11:28:46;0.60;;;0.60;;
43152;SDS011;28756;49.064;9.290;2023-05-10T11:31:14;0.93;;;0.70;;
43152;SDS011;28756;49.064;9.290;2023-05-10T11:36:12;0.70;;;0.57;;
43152;SDS011;28756;49.064;9.290;2023-05-10T11:38:50;0.70;;;0.50;;
43152;SDS011;28756;49.064;9.290;2023-05-10T11:41:17;0.98;;;0.50;;
43152;SDS011;28756;49.064;9.290;2023-05-10T11:43:46;0.60;;;0.60;;
43152;SDS011;28756;49.064;9.290;2023-05-10T11:46:15;1.90;;;0.60;;
43152;SDS011;28756;49.064;9.290;2023-05-10T11:48:45;1.23;;;0.55;;
43152;SDS011;28756;49.064;9.290;2023-05-10T11:51:12;0.82;;;0.50;;
43152;SDS011;28756;49.064;9.290;2023-05-10T11:53:37;1.10;;;0.80;;
43152;SDS011;28756;49.064;9.290;2023-05-10T11:56:07;1.25;;;0.80;;
43152;SDS011;28756;49.064;9.290;2023-05-10T11:58:35;0.73;;;0.63;;
43152;SDS011;28756;49.064;9.290;2023-05-10T12:01:03;0.75;;;0.70;;
43152;SDS011;28756;49.064;9.290;2023-05-10T12:03:31;0.88;;;0.60;;
43152;SDS011;28756;49.064;9.290;2023-05-10T12:05:58;0.93;;;0.60;;
43152;SDS011;28756;49.064;9.290;2023-05-10T12:08:26;1.08;;;0.70;;
43152;SDS011;28756;49.064;9.290;2023-05-10T12:11:05;1.10;;;0.60;;
43152;SDS011;28756;49.064;9.290;2023-05-10T12:13:38;2.15;;;0.80;;
43152;SDS011;28756;49.064;9.290;2023-05-10T12:16:18;2.28;;;0.90;;
43152;SDS011;28756;49.064;9.290;2023-05-10T12:18:50;2.33;;;0.73;;
43152;SDS011;28756;49.064;9.290;2023-05-10T12:21:18;1.55;;;0.70;;
43152;SDS011;28756;49.064;9.290;2023-05-10T12:23:51;1.25;;;0.60;;
43152;SDS011;28756;49.064;9.290;2023-05-10T12:26:23;2.20;;;0.65;;
43152;SDS011;28756;49.064;9.290;2023-05-10T12:28:51;1.52;;;0.80;;
43152;SDS011;28756;49.064;9.290;2023-05-10T12:31:20;0.90;;;0.70;;
43152;SDS011;28756;49.064;9.290;2023-05-10T12:33:46;2.78;;;1.20;;
43152;SDS011;28756;49.064;9.290;2023-05-10T12:36:14;2.33;;;0.70;;
43152;SDS011;28756;49.064;9.290;2023-05-10T12:38:42;1.50;;;0.93;;
43152;SDS011;28756;49.064;9.290;2023-05-10T12:41:15;1.83;;;1.15;;
43152;SDS011;28756;49.064;9.290;2023-05-10T12:43:42;2.70;;;1.38;;
43152;SDS011;28756;49.064;9.290;2023-05-10T12:46:12;3.70;;;1.10;;
43152;SDS011;28756;49.064;9.290;2023-05-10T12:48:42;1.73;;;1.00;;
43152;SDS011;28756;49.064;9.290;2023-05-10T12:51:10;1.52;;;1.10;;
43152;SDS011;28756;49.064;9.290;2023-05-10T12:53:42;2.88;;;0.85;;
43152;SDS011;28756;49.064;9.290;2023-05-10T12:56:10;1.35;;;1.00;;
43152;SDS011;28756;49.064;9.290;2023-05-10T12:58:36;0.73;;;0.70;;
43152;SDS011;28756;49.064;9.290;2023-05-10T13:01:04;0.90;;;0.75;;
43152;SDS011;28756;49.064;9.290;2023-05-10T13:03:30;1.48;;;0.85;;
43152;SDS011;28756;49.064;9.290;2023-05-10T13:05:56;1.95;;;0.75;;
43152;SDS011;28756;49.064;9.290;2023-05-10T13:08:22;1.25;;;0.80;;
43152;SDS011;28756;49.064;9.290;2023-05-10T13:10:48;3.40;;;0.90;;
43152;SDS011;28756;49.064;9.290;2023-05-10T13:13:14;2.85;;;0.90;;
43152;SDS011;28756;49.064;9.290;2023-05-10T13:15:40;1.05;;;0.68;;
43152;SDS011;28756;49.064;9.290;2023-05-10T13:18:06;2.28;;;0.90;;
43152;SDS011;28756;49.064;9.290;2023-05-10T13:20:32;1.48;;;0.70;;
43152;SDS011;28756;49.064;9.290;2023-05-10T13:22:57;0.90;;;0.70;;
43152;SDS011;28756;49.064;9.290;2023-05-10T13:25:23;1.15;;;0.70;;
43152;SDS011;28756;49.064;9.290;2023-05-10T13:27:49;1.77;;;0.80;;
43152;SDS011;28756;49.064;9.290;2023-05-10T13:30:15;2.78;;;0.80;;
43152;SDS011;28756;49.064;9.290;2023-05-10T13:32:41;2.55;;;0.98;;
43152;SDS011;28756;49.064;9.290;2023-05-10T13:35:07;1.65;;;0.80;;
43152;SDS011;28756;49.064;9.290;2023-05-10T13:37:33;3.17;;;0.93;;
43152;SDS011;28756;49.064;9.290;2023-05-10T13:40:02;1.83;;;0.70;;
43152;SDS011;28756;49.064;9.290;2023-05-10T13:42:29;1.70;;;0.80;;
43152;SDS011;28756;49.064;9.290;2023-05-10T13:44:56;1.58;;;0.80;;
43152;SDS011;28756;49.064;9.290;2023-05-10T13:47:22;2.60;;;0.90;;
43152;SDS011;28756;49.064;9.290;2023-05-10T13:49:48;1.15;;;0.85;;
43152;SDS011;28756;49.064;9.290;2023-05-10T13:52:13;1.83;;;0.70;;
43152;SDS011;28756;49.064;9.290;2023-05-10T13:54:39;1.58;;;0.88;;
43152;SDS011;28756;49.064;9.290;2023-05-10T13:57:05;1.20;;;0.80;;
43152;SDS011;28756;49.064;9.290;2023-05-10T13:59:31;3.70;;;0.90;;
43152;SDS011;28756;49.064;9.290;2023-05-10T14:01:58;1.33;;;0.70;;
43152;SDS011;28756;49.064;9.290;2023-05-10T14:04:24;1.23;;;0.70;;
43152;SDS011;28756;49.064;9.290;2023-05-10T14:06:50;2.03;;;0.55;;
43152;SDS011;28756;49.064;9.290;2023-05-10T14:09:17;1.63;;;0.60;;
43152;SDS011;28756;49.064;9.290;2023-05-10T14:11:44;1.50;;;0.70;;
43152;SDS011;28756;49.064;9.290;2023-05-10T14:14:11;1.70;;;0.52;;
43152;SDS011;28756;49.064;9.290;2023-05-10T14:16:38;2.47;;;0.60;;
43152;SDS011;28756;49.064;9.290;2023-05-10T14:19:08;5.82;;;0.70;;
43152;SDS011;28756;49.064;9.290;2023-05-10T14:21:35;0.95;;;0.50;;
43152;SDS011;28756;49.064;9.290;2023-05-10T14:24:01;1.42;;;0.60;;
43152;SDS011;28756;49.064;9.290;2023-05-10T14:26:27;0.98;;;0.50;;
43152;SDS011;28756;49.064;9.290;2023-05-10T14:28:53;1.63;;;0.50;;
43152;SDS011;28756;49.064;9.290;2023-05-10T14:31:19;2.63;;;0.52;;
43152;SDS011;28756;49.064;9.290;2023-05-10T14:33:45;1.23;;;0.50;;
43152;SDS011;28756;49.064;9.290;2023-05-10T14:36:12;1.65;;;0.60;;
43152;SDS011;28756;49.064;9.290;2023-05-10T14:38:38;4.68;;;0.75;;
43152;SDS011;28756;49.064;9.290;2023-05-10T14:41:05;3.10;;;0.60;;
43152;SDS011;28756;49.064;9.290;2023-05-10T14:43:31;1.17;;;0.38;;
43152;SDS011;28756;49.064;9.290;2023-05-10T14:45:57;1.65;;;0.55;;
43152;SDS011;28756;49.064;9.290;2023-05-10T14:48:23;1.55;;;0.47;;
43152;SDS011;28756;49.064;9.290;2023-05-10T14:50:49;2.13;;;0.40;;
43152;SDS011;28756;49.064;9.290;2023-05-10T14:53:15;1.42;;;0.40;;
43152;SDS011;28756;49.064;9.290;2023-05-10T14:55:41;0.50;;;0.40;;
43152;SDS011;28756;49.064;9.290;2023-05-10T14:58:07;1.25;;;0.60;;
43152;SDS011;28756;49.064;9.290;2023-05-10T15:00:33;0.93;;;0.47;;
43152;SDS011;28756;49.064;9.290;2023-05-10T15:02:59;2.15;;;0.45;;
43152;SDS011;28756;49.064;9.290;2023-05-10T15:05:24;1.23;;;0.50;;
43152;SDS011;28756;49.064;9.290;2023-05-10T15:07:50;1.13;;;0.43;;
43152;SDS011;28756;49.064;9.290;2023-05-10T15:10:17;0.88;;;0.45;;
43152;SDS011;28756;49.064;9.290;2023-05-10T15:12:43;2.65;;;0.50;;
43152;SDS011;28756;49.064;9.290;2023-05-10T15:15:09;1.40;;;0.60;;
43152;SDS011;28756;49.064;9.290;2023-05-10T15:17:35;0.95;;;0.50;;
43152;SDS011;28756;49.064;9.290;2023-05-10T15:20:01;2.58;;;0.60;;
43152;SDS011;28756;49.064;9.290;2023-05-10T15:22:30;1.77;;;0.68;;
43152;SDS011;28756;49.064;9.290;2023-05-10T15:24:59;1.50;;;0.40;;
43152;SDS011;28756;49.064;9.290;2023-05-10T15:27:25;1.05;;;0.40;;
43152;SDS011;28756;49.064;9.290;2023-05-10T15:29:51;1.17;;;0.35;;
43152;SDS011;28756;49.064;9.290;2023-05-10T15:32:17;2.05;;;0.68;;
43152;SDS011;28756;49.064;9.290;2023-05-10T15:34:43;1.70;;;0.65;;
43152;SDS011;28756;49.064;9.290;2023-05-10T15:37:09;1.88;;;0.50;;
43152;SDS011;28756;49.064;9.290;2023-05-10T15:39:35;0.75;;;0.40;;
43152;SDS011;28756;49.064;9.290;2023-05-10T15:42:01;1.90;;;0.50;;